Terminal Aerodrome Forecast
Issued by NWS

Home | Current Version | Previous Version | Text Only | Print | Product List | Glossary On
Versions: 1 2 3 4 5 6 7 8 9 10 11 12
000
FTUS42 KTAE 281720
TAFECP
TAF
KECP 281720Z 2818/2918 15008KT P6SM VCTS BKN040CB
     FM290000 VRB05KT P6SM SCT250
     FM291500 13008KT P6SM VCTS BKN040CB=

USA.gov is the U.S. government's official web portal to all federal, state and local government web resources and services.